Time;durP1;ratioP1;P1;durP2;ratioP2;P2;SDS_P1;SDS_P2;PMS_P1;PMS_P2;Temp;Humidity;BMP_temperature;BMP_pressure;BME280_temperature;BME280_humidity;BME280_pressure;Samples;Min_cycle;Max_cycle;Signal;HPM_P1;HPM_P2
2023/06/14 00:00:40;;;;;;;5.93;2.25;;;;;;;-142.75;100.00;76345.91;5026213;28;20028;-63
2023/06/14 00:03:08;;;;;;;6.60;2.08;;;;;;;-142.75;100.00;76361.63;5026604;28;20598;-63
2023/06/14 00:05:38;;;;;;;4.35;1.73;;;;;;;-142.75;100.00;76369.50;5026129;28;20086;-62
2023/06/14 00:08:07;;;;;;;4.93;1.83;;;;;;;-142.75;100.00;76377.38;5026089;28;20029;-62
2023/06/14 00:10:35;;;;;;;5.32;2.03;;;;;;;-142.75;100.00;76385.25;5026022;28;20021;-62
2023/06/14 00:13:01;;;;;;;4.30;2.40;;;;;;;-142.75;100.00;76391.16;5026369;28;20040;-64
2023/06/14 00:15:26;;;;;;;2.85;1.90;;;;;;;-142.75;100.00;76395.09;5026032;28;20027;-63
2023/06/14 00:17:51;;;;;;;6.95;1.95;;;;;;;-142.75;100.00;76401.00;5025957;28;20017;-64
2023/06/14 00:20:17;;;;;;;3.35;1.92;;;;;;;-142.75;100.00;76410.84;5026061;28;20040;-63
2023/06/14 00:22:42;;;;;;;4.47;2.40;;;;;;;-142.75;100.00;76406.91;5026246;28;20030;-62
2023/06/14 00:25:07;;;;;;;5.32;2.65;;;;;;;-142.75;100.00;76412.81;5025777;28;20101;-63
2023/06/14 00:27:33;;;;;;;6.95;2.30;;;;;;;-142.75;100.00;76414.78;5025538;28;20026;-64
2023/06/14 00:29:58;;;;;;;4.53;2.20;;;;;;;-142.75;100.00;76424.63;5025814;28;20036;-62
2023/06/14 00:32:25;;;;;;;5.30;2.42;;;;;;;-142.75;100.00;76436.44;5025348;28;20592;-62
2023/06/14 00:34:51;;;;;;;5.07;2.55;;;;;;;-142.75;100.00;76444.31;5025738;28;20025;-63
2023/06/14 00:37:16;;;;;;;6.88;2.25;;;;;;;-142.75;100.00;76448.25;5025549;28;20025;-62
2023/06/14 00:39:41;;;;;;;5.45;2.33;;;;;;;-142.75;100.00;76448.25;5025493;28;20086;-63
2023/06/14 00:42:07;;;;;;;4.00;2.30;;;;;;;-142.75;100.00;76456.13;5025640;28;20509;-62
2023/06/14 00:44:32;;;;;;;9.80;2.38;;;;;;;-142.75;100.00;76464.00;5041238;28;20033;-63
2023/06/14 00:46:57;;;;;;;6.40;2.75;;;;;;;-142.75;100.00;76469.91;5025673;28;20022;-62
2023/06/14 00:49:24;;;;;;;4.18;2.35;;;;;;;-142.75;100.00;76467.94;5025723;28;20045;-63
2023/06/14 00:51:50;;;;;;;5.40;2.58;;;;;;;-142.75;100.00;76469.91;5025609;28;20124;-62
2023/06/14 00:54:15;;;;;;;4.63;2.10;;;;;;;-142.75;100.00;76467.94;5025424;28;20104;-58
2023/06/14 00:56:43;;;;;;;6.78;2.30;;;;;;;-142.75;100.00;76475.81;5025632;28;20079;-62
2023/06/14 00:59:10;;;;;;;4.50;2.25;;;;;;;-142.75;100.00;76483.69;5025212;28;20026;-62
2023/06/14 01:01:36;;;;;;;3.78;2.00;;;;;;;-142.75;100.00;76487.63;5025249;28;20021;-63
2023/06/14 01:04:03;;;;;;;3.70;2.30;;;;;;;-142.75;100.00;76479.75;5025330;28;20486;-63
2023/06/14 01:06:41;;;;;;;5.32;2.05;;;;;;;-142.75;100.00;76487.63;5025278;28;20036;-63
2023/06/14 01:09:26;;;;;;;3.95;2.45;;;;;;;-142.75;100.00;76481.72;5023977;28;20105;-62
2023/06/14 01:12:10;;;;;;;4.05;2.42;;;;;;;-142.75;100.00;76495.50;5025113;28;20378;-63
2023/06/14 01:14:37;;;;;;;5.20;2.17;;;;;;;-142.75;100.00;76501.41;5025510;28;20018;-62
2023/06/14 01:17:04;;;;;;;6.90;2.35;;;;;;;-142.75;100.00;76499.44;5025150;28;20379;-62
2023/06/14 01:19:31;;;;;;;8.32;2.60;;;;;;;-142.75;100.00;76503.38;5024821;28;20687;-62
2023/06/14 01:21:57;;;;;;;4.68;2.50;;;;;;;-142.75;100.00;76503.38;5024950;28;20013;-62
2023/06/14 01:24:25;;;;;;;5.50;2.72;;;;;;;-142.75;100.00;76507.31;5025133;28;20025;-62
2023/06/14 01:26:55;;;;;;;5.07;2.63;;;;;;;-142.75;100.00;76503.38;5025347;28;20445;-63
2023/06/14 01:29:23;;;;;;;5.80;2.88;;;;;;;-142.75;100.00;76521.09;5024802;28;20383;-63
2023/06/14 01:31:49;;;;;;;10.52;2.50;;;;;;;-142.75;100.00;76495.50;5024589;28;20728;-63
2023/06/14 01:34:15;;;;;;;8.00;2.90;;;;;;;-142.75;100.00;76503.38;5025105;28;20454;-61
2023/06/14 01:36:42;;;;;;;6.45;2.38;;;;;;;-142.75;100.00;76515.19;5025257;28;20026;-63
2023/06/14 01:39:09;;;;;;;6.90;2.67;;;;;;;-142.75;100.00;76511.25;5024593;28;20033;-63
2023/06/14 01:41:35;;;;;;;5.18;2.80;;;;;;;-142.75;100.00;76521.09;5039980;28;20049;-62
2023/06/14 01:44:01;;;;;;;5.75;3.05;;;;;;;-142.75;100.00;76528.97;5025374;28;20025;-62
2023/06/14 01:46:26;;;;;;;6.80;3.10;;;;;;;-142.75;100.00;76521.09;5024758;28;20018;-62
2023/06/14 01:48:52;;;;;;;6.00;2.50;;;;;;;-142.75;100.00;76517.16;5024792;28;20026;-62
2023/06/14 01:51:17;;;;;;;4.88;2.60;;;;;;;-142.75;100.00;76519.13;5024813;28;20075;-61
2023/06/14 01:53:43;;;;;;;5.55;2.40;;;;;;;-142.75;100.00;76530.91;5024822;28;20025;-62
2023/06/14 01:56:08;;;;;;;6.65;2.65;;;;;;;-142.75;100.00;76536.84;5024947;28;20108;-64
2023/06/14 01:58:33;;;;;;;5.38;2.80;;;;;;;-142.75;100.00;76534.84;5024858;28;20498;-62
2023/06/14 02:01:00;;;;;;;6.13;3.30;;;;;;;-142.75;100.00;76534.84;5024587;28;20033;-62
2023/06/14 02:03:26;;;;;;;5.32;2.63;;;;;;;-142.75;100.00;76538.78;5024155;28;20025;-62
2023/06/14 02:05:51;;;;;;;4.53;2.45;;;;;;;-142.75;100.00;76538.78;5027765;28;20457;-63
2023/06/14 02:08:17;;;;;;;6.78;2.80;;;;;;;-142.75;100.00;76544.69;5027978;28;20025;-63
2023/06/14 02:10:42;;;;;;;4.13;2.67;;;;;;;-142.75;100.00;76558.47;5028348;28;20061;-62
2023/06/14 02:13:07;;;;;;;4.75;2.95;;;;;;;-142.75;100.00;76554.53;5028429;28;20053;-63
2023/06/14 02:15:35;;;;;;;6.53;2.88;;;;;;;-142.75;100.00;76572.25;5028269;28;20147;-62
2023/06/14 02:18:03;;;;;;;7.57;2.85;;;;;;;-142.75;100.00;76564.38;5028090;28;20040;-64
2023/06/14 02:20:28;;;;;;;7.22;3.20;;;;;;;-142.75;100.00;76586.03;5028193;28;20025;-62
2023/06/14 02:22:54;;;;;;;5.05;2.47;;;;;;;-142.75;100.00;76580.13;5028301;28;20029;-62
2023/06/14 02:25:19;;;;;;;5.03;2.70;;;;;;;-142.75;100.00;76576.19;5028027;28;20033;-62
2023/06/14 02:27:45;;;;;;;8.80;2.55;;;;;;;-142.75;100.00;76574.22;5028192;28;20029;-63
2023/06/14 02:30:11;;;;;;;4.50;2.40;;;;;;;-142.75;100.00;76566.34;5026680;28;20761;-63
2023/06/14 02:32:36;;;;;;;6.00;2.40;;;;;;;-142.75;100.00;76578.16;5028124;28;20025;-62
2023/06/14 02:35:02;;;;;;;5.15;2.65;;;;;;;-142.75;100.00;76582.09;5028107;28;20604;-64
2023/06/14 02:37:28;;;;;;;6.35;3.03;;;;;;;-142.75;100.00;76595.88;5027907;28;20021;-62
2023/06/14 02:39:53;;;;;;;5.38;2.72;;;;;;;-142.75;100.00;76609.66;5027782;28;20032;-62
2023/06/14 02:42:18;;;;;;;6.85;2.70;;;;;;;-142.75;100.00;76607.69;5027643;28;20037;-62
2023/06/14 02:44:45;;;;;;;7.30;3.33;;;;;;;-142.75;100.00;76617.53;5028177;28;20483;-62
2023/06/14 02:47:10;;;;;;;5.65;2.38;;;;;;;-142.75;100.00;76627.38;5028422;28;20025;-64
2023/06/14 02:49:35;;;;;;;9.20;3.03;;;;;;;-142.75;100.00;76629.34;5027531;28;20021;-62
2023/06/14 02:52:01;;;;;;;7.55;2.80;;;;;;;-142.75;100.00;76633.28;5027532;28;20064;-61
2023/06/14 02:54:26;;;;;;;3.90;2.70;;;;;;;-142.75;100.00;76633.28;5027614;28;20021;-62
2023/06/14 02:56:52;;;;;;;7.03;3.13;;;;;;;-142.75;100.00;76637.22;5027660;28;20563;-62
2023/06/14 02:59:19;;;;;;;10.40;3.30;;;;;;;-142.75;100.00;76645.09;5027140;28;20445;-63
2023/06/14 03:01:44;;;;;;;4.90;2.53;;;;;;;-142.75;100.00;76645.09;5027563;28;20036;-61
2023/06/14 03:04:10;;;;;;;3.90;2.50;;;;;;;-142.75;100.00;76649.03;5027511;28;20121;-63
2023/06/14 03:06:36;;;;;;;7.20;2.72;;;;;;;-142.75;100.00;76662.81;5027648;28;20025;-62
2023/06/14 03:09:04;;;;;;;4.95;2.70;;;;;;;-142.75;100.00;76680.53;5027096;28;20049;-62
2023/06/14 03:11:31;;;;;;;6.82;3.17;;;;;;;-142.75;100.00;76678.56;5027141;28;20033;-62
2023/06/14 03:13:56;;;;;;;5.15;2.78;;;;;;;-142.75;100.00;76688.41;5027405;28;20032;-64
2023/06/14 03:16:23;;;;;;;6.65;2.97;;;;;;;-142.75;100.00;76694.31;5027227;28;20018;-62
2023/06/14 03:18:51;;;;;;;8.10;3.25;;;;;;;-142.75;100.00;76698.25;5026992;28;20040;-62
2023/06/14 03:21:16;;;;;;;4.72;2.65;;;;;;;-142.75;100.00;76700.22;5026847;28;20108;-61
2023/06/14 03:23:42;;;;;;;7.45;2.72;;;;;;;-142.75;100.00;76704.16;5027345;28;20104;-62
2023/06/14 03:26:08;;;;;;;4.47;2.58;;;;;;;-142.75;100.00;76708.09;5027164;28;20036;-62
2023/06/14 03:28:33;;;;;;;6.20;2.75;;;;;;;-142.75;100.00;76700.22;5026335;28;20044;-62
2023/06/14 03:30:59;;;;;;;7.03;2.85;;;;;;;-142.75;100.00;76704.16;5026867;28;20021;-62
2023/06/14 03:33:25;;;;;;;4.10;2.25;;;;;;;-142.75;100.00;76714.00;5026747;28;20419;-63
2023/06/14 03:35:50;;;;;;;5.45;2.75;;;;;;;-142.75;100.00;76715.97;5026918;28;20029;-62
2023/06/14 03:38:16;;;;;;;6.13;3.00;;;;;;;-142.75;100.00;76721.88;5026579;28;20537;-61
2023/06/14 03:40:41;;;;;;;6.57;2.20;;;;;;;-142.75;100.00;76719.91;5026998;28;20025;-62
2023/06/14 03:43:07;;;;;;;6.63;2.63;;;;;;;-142.75;100.00;76723.84;5027006;28;20079;-62
2023/06/14 03:45:32;;;;;;;5.68;2.88;;;;;;;-142.75;100.00;76725.81;5026571;28;20028;-62
2023/06/14 03:47:58;;;;;;;4.55;2.28;;;;;;;-142.75;100.00;76727.78;5026565;28;20052;-62
2023/06/14 03:50:23;;;;;;;5.38;2.30;;;;;;;-142.75;100.00;76737.63;5025469;28;20013;-63
2023/06/14 03:52:50;;;;;;;6.03;2.45;;;;;;;-142.75;100.00;76735.66;5026624;28;20061;-62
2023/06/14 03:55:16;;;;;;;6.65;2.30;;;;;;;-142.75;100.00;76745.50;5026630;28;20021;-64
2023/06/14 03:57:41;;;;;;;5.38;2.55;;;;;;;-142.75;100.00;76745.50;5026484;28;20094;-62
2023/06/14 04:00:09;;;;;;;3.88;2.25;;;;;;;-142.75;100.00;76731.72;5026334;28;20441;-63
2023/06/14 04:02:36;;;;;;;5.07;2.70;;;;;;;-142.75;100.00;76729.75;5026160;28;20021;-63
2023/06/14 04:05:02;;;;;;;4.05;2.35;;;;;;;-142.75;100.00;76725.81;5026296;28;20027;-62
2023/06/14 04:07:28;;;;;;;6.78;2.38;;;;;;;-142.75;100.00;76733.69;5026282;28;20033;-62
2023/06/14 04:09:53;;;;;;;4.68;2.03;;;;;;;-142.75;100.00;76731.72;5025941;28;20382;-62
2023/06/14 04:12:18;;;;;;;6.07;2.30;;;;;;;-142.75;100.00;76725.81;5025876;28;20028;-63
2023/06/14 04:14:44;;;;;;;6.55;2.50;;;;;;;-142.75;100.00;76725.81;5027036;28;20036;-62
2023/06/14 04:17:09;;;;;;;6.63;2.40;;;;;;;-142.75;100.00;76719.91;5025985;28;20026;-63
2023/06/14 04:19:35;;;;;;;5.22;2.45;;;;;;;-142.75;100.00;76715.97;5025841;28;20703;-63
2023/06/14 04:22:02;;;;;;;4.32;2.30;;;;;;;-142.75;100.00;76719.91;5026075;28;20112;-62
2023/06/14 04:24:31;;;;;;;7.03;2.28;;;;;;;-142.75;100.00;76715.97;5025712;28;20091;-62
2023/06/14 04:26:58;;;;;;;6.72;2.97;;;;;;;-142.75;100.00;76708.09;5025476;28;20021;-62
2023/06/14 04:29:26;;;;;;;5.50;2.42;;;;;;;-142.75;100.00;76708.09;5025389;28;20542;-61
2023/06/14 04:31:53;;;;;;;3.42;2.20;;;;;;;-142.75;100.00;76688.41;5025516;28;20156;-62
2023/06/14 04:34:19;;;;;;;3.67;1.92;;;;;;;-142.75;100.00;76700.22;5025698;28;20029;-63
2023/06/14 04:36:48;;;;;;;7.28;2.60;;;;;;;-142.75;100.00;76684.47;5025956;28;20048;-62
2023/06/14 04:39:15;;;;;;;4.53;2.33;;;;;;;-142.75;100.00;76668.72;5025589;28;20032;-63
2023/06/14 04:41:41;;;;;;;7.18;2.20;;;;;;;-142.75;100.00;76662.81;5025606;28;20079;-62
2023/06/14 04:44:07;;;;;;;4.05;2.60;;;;;;;-142.75;100.00;76656.91;5025976;28;20059;-62
2023/06/14 04:46:32;;;;;;;4.38;2.47;;;;;;;-142.75;100.00;76654.94;5025620;28;20116;-63
2023/06/14 04:49:02;;;;;;;6.65;2.55;;;;;;;-142.75;100.00;76651.00;5025449;28;20091;-62
2023/06/14 04:51:29;;;;;;;6.88;2.58;;;;;;;-142.75;100.00;76641.16;5025385;28;20030;-62
2023/06/14 04:53:58;;;;;;;3.58;2.38;;;;;;;-142.75;100.00;76619.50;5025497;28;20024;-62
2023/06/14 04:56:25;;;;;;;6.50;2.30;;;;;;;-142.75;100.00;76615.56;5025516;28;20022;-63
2023/06/14 04:58:50;;;;;;;5.68;2.40;;;;;;;-142.75;100.00;76605.72;5025219;28;20116;-62
2023/06/14 05:01:15;;;;;;;6.53;2.17;;;;;;;-142.75;100.00;76605.72;5025128;28;20151;-64
2023/06/14 05:03:41;;;;;;;4.88;2.00;;;;;;;-142.75;100.00;76597.84;5007876;28;20387;-62
2023/06/14 05:06:06;;;;;;;7.13;2.45;;;;;;;-142.75;100.00;76595.88;5025144;28;20429;-62
2023/06/14 05:08:32;;;;;;;3.72;2.03;;;;;;;-142.75;100.00;76582.09;5025421;28;20025;-63
2023/06/14 05:10:57;;;;;;;5.97;2.80;;;;;;;-142.75;100.00;76576.19;5025067;28;20032;-63
2023/06/14 05:13:23;;;;;;;6.05;2.22;;;;;;;-142.75;100.00;76574.22;5025550;28;20029;-62
2023/06/14 05:15:48;;;;;;;5.25;2.33;;;;;;;-142.75;100.00;76564.38;5025080;28;20153;-62
2023/06/14 05:18:15;;;;;;;3.63;2.15;;;;;;;-142.75;100.00;76556.50;5025297;28;20045;-62
2023/06/14 05:20:41;;;;;;;6.57;2.30;;;;;;;-142.75;100.00;76550.59;5025009;28;20152;-63
2023/06/14 05:23:07;;;;;;;6.93;2.15;;;;;;;-142.75;100.00;76554.53;5024945;28;20674;-63
2023/06/14 05:25:32;;;;;;;5.18;2.15;;;;;;;-142.75;100.00;76560.44;5024875;28;20075;-63
2023/06/14 05:27:58;;;;;;;3.60;2.20;;;;;;;-142.75;100.00;76542.72;5024871;28;20025;-62
2023/06/14 05:30:23;;;;;;;4.18;2.10;;;;;;;-142.75;100.00;76538.78;5024969;28;20037;-63
2023/06/14 05:32:48;;;;;;;4.38;1.85;;;;;;;-142.75;100.00;76538.78;5024801;28;20030;-64
2023/06/14 05:35:14;;;;;;;6.75;2.40;;;;;;;-142.75;100.00;76534.84;5025241;28;20493;-62
2023/06/14 05:37:39;;;;;;;6.20;1.90;;;;;;;-142.75;100.00;76528.97;5024834;28;20502;-62
2023/06/14 05:40:07;;;;;;;3.60;1.85;;;;;;;-142.75;100.00;76499.44;5027488;28;20056;-62
2023/06/14 05:42:33;;;;;;;3.95;2.17;;;;;;;-142.75;100.00;76497.47;5028649;28;20117;-62
2023/06/14 05:44:58;;;;;;;6.22;2.45;;;;;;;-142.75;100.00;76495.50;5029482;28;20132;-63
2023/06/14 05:47:23;;;;;;;6.53;2.30;;;;;;;-142.75;100.00;76489.59;5028723;28;20033;-63
2023/06/14 05:49:49;;;;;;;9.38;2.50;;;;;;;-142.75;100.00;76483.69;5028716;28;20032;-62
2023/06/14 05:52:14;;;;;;;4.70;2.05;;;;;;;-142.75;100.00;76465.97;5028778;28;20031;-63
2023/06/14 05:54:41;;;;;;;3.67;2.05;;;;;;;-142.75;100.00;76465.97;5028839;28;20056;-63
2023/06/14 05:57:06;;;;;;;6.65;2.13;;;;;;;-142.75;100.00;76454.16;5028736;28;20100;-62
2023/06/14 05:59:31;;;;;;;9.07;2.25;;;;;;;-142.75;100.00;76420.69;5028426;28;20136;-63
2023/06/14 06:01:57;;;;;;;7.05;2.90;;;;;;;-142.75;100.00;76428.56;5028496;28;20033;-64
2023/06/14 06:04:23;;;;;;;6.00;2.28;;;;;;;-142.75;100.00;76404.94;5029169;28;20120;-64
2023/06/14 06:06:48;;;;;;;3.20;1.92;;;;;;;-142.75;100.00;76391.16;5028177;28;20643;-63
2023/06/14 06:09:14;;;;;;;4.25;2.47;;;;;;;-142.75;100.00;76385.25;5027474;28;20021;-63
2023/06/14 06:11:40;;;;;;;7.43;2.85;;;;;;;-142.75;100.00;76361.63;5027318;28;20431;-64
2023/06/14 06:14:06;;;;;;;4.93;2.35;;;;;;;-142.75;100.00;76343.94;5028206;28;20032;-63
2023/06/14 06:16:31;;;;;;;6.45;2.42;;;;;;;-142.75;99.61;76365.56;5027238;28;20025;-64
2023/06/14 06:18:56;;;;;;;6.18;2.10;;;;;;;-142.75;100.00;76345.91;5027486;28;20060;-64
2023/06/14 06:21:22;;;;;;;5.57;2.35;;;;;;;-142.75;100.00;76320.31;5027301;28;20029;-63
2023/06/14 06:23:47;;;;;;;5.03;2.45;;;;;;;-142.75;100.00;76306.53;5027689;28;20053;-64
2023/06/14 06:26:12;;;;;;;6.63;2.05;;;;;;;-142.75;100.00;76290.78;5027606;28;20104;-64
2023/06/14 06:28:38;;;;;;;5.30;2.28;;;;;;;-142.75;97.64;76290.78;5027100;28;20029;-63
2023/06/14 06:31:03;;;;;;;5.00;2.40;;;;;;;-142.75;90.67;76326.22;5027315;28;20020;-63
2023/06/14 06:33:29;;;;;;;4.95;2.03;;;;;;;-142.75;92.64;76284.88;5027302;28;20434;-62
2023/06/14 06:35:54;;;;;;;6.00;2.63;;;;;;;-142.75;90.77;76278.97;5027188;28;20036;-63
2023/06/14 06:38:19;;;;;;;3.65;1.90;;;;;;;-142.75;90.74;76267.16;5027396;28;20110;-63
2023/06/14 06:40:45;;;;;;;7.97;3.03;;;;;;;-142.75;89.43;76271.09;5027305;28;20022;-64
2023/06/14 06:43:13;;;;;;;7.13;2.58;;;;;;;-142.75;90.92;76255.34;5027240;28;20494;-63
2023/06/14 06:45:39;;;;;;;6.03;2.47;;;;;;;-142.75;89.85;76251.41;5027549;28;20029;-63
2023/06/14 06:48:05;;;;;;;8.20;2.35;;;;;;;-142.75;89.04;76243.53;5027027;28;20021;-63
2023/06/14 06:50:30;;;;;;;5.72;2.20;;;;;;;-142.75;87.73;76225.81;5026494;28;20553;-63
2023/06/14 06:52:55;;;;;;;9.75;2.80;;;;;;;-142.75;86.04;76219.91;5026827;28;20047;-62
2023/06/14 06:55:21;;;;;;;6.10;1.98;;;;;;;-142.75;90.69;76212.03;5026786;28;20032;-63
2023/06/14 06:57:46;;;;;;;4.47;2.30;;;;;;;-142.75;85.22;76212.03;5026869;28;20020;-63
2023/06/14 07:00:12;;;;;;;3.85;2.05;;;;;;;-142.75;84.84;76208.09;5026953;28;20057;-63
2023/06/14 07:02:38;;;;;;;4.60;2.25;;;;;;;-142.75;82.83;76196.31;5026758;28;20112;-63
2023/06/14 07:05:04;;;;;;;7.18;2.50;;;;;;;-142.75;83.12;76180.56;5026841;28;20112;-63
2023/06/14 07:07:29;;;;;;;4.25;2.40;;;;;;;-142.75;83.44;76190.41;5027118;28;20029;-63
2023/06/14 07:09:57;;;;;;;3.53;2.13;;;;;;;-142.75;85.71;76184.50;5026560;28;20028;-64
2023/06/14 07:12:22;;;;;;;6.90;2.45;;;;;;;-142.75;84.28;76164.81;5025745;28;20111;-64
2023/06/14 07:14:48;;;;;;;8.10;2.60;;;;;;;-142.75;82.63;76145.13;5027032;28;20056;-64
2023/06/14 07:17:13;;;;;;;4.40;2.38;;;;;;;-142.75;81.65;76125.44;5026614;28;20025;-63
2023/06/14 07:19:38;;;;;;;6.22;1.98;;;;;;;-142.75;81.31;76109.69;5024429;28;20091;-63
2023/06/14 07:22:04;;;;;;;5.82;2.60;;;;;;;-142.75;80.24;76111.66;5026087;28;20025;-63
2023/06/14 07:24:29;;;;;;;6.38;2.25;;;;;;;-142.75;81.03;76101.81;5023871;28;20407;-63
2023/06/14 07:26:55;;;;;;;4.03;1.98;;;;;;;-142.75;84.10;76082.13;5025716;28;20037;-63
2023/06/14 07:29:21;;;;;;;7.97;3.33;;;;;;;-142.75;79.29;76078.19;5025650;28;20138;-63
2023/06/14 07:31:46;;;;;;;4.00;2.60;;;;;;;-142.75;80.55;76068.38;5025629;28;20036;-64
2023/06/14 07:34:11;;;;;;;7.38;2.95;;;;;;;-142.75;77.45;76066.41;5025878;28;20655;-62
2023/06/14 07:36:37;;;;;;;7.43;2.63;;;;;;;-142.75;77.65;76058.53;5025911;28;20029;-63
2023/06/14 07:39:03;;;;;;;5.28;2.55;;;;;;;-142.75;79.75;76052.63;5025646;28;20028;-63
2023/06/14 07:41:29;;;;;;;5.82;2.72;;;;;;;-142.75;78.03;76050.66;5024993;28;20025;-63
2023/06/14 07:43:55;;;;;;;6.88;2.38;;;;;;;-142.75;76.72;76066.41;5025596;28;20037;-63
2023/06/14 07:46:20;;;;;;;5.80;2.45;;;;;;;-142.75;78.60;76066.41;5025916;28;20112;-63
2023/06/14 07:48:46;;;;;;;4.93;2.83;;;;;;;-142.75;76.67;76078.19;5026427;28;20086;-63
2023/06/14 07:51:11;;;;;;;4.80;2.45;;;;;;;-142.75;78.68;76091.97;5027138;28;20017;-63
2023/06/14 07:53:36;;;;;;;4.78;2.35;;;;;;;-142.75;77.11;76070.34;5026794;28;20025;-63
2023/06/14 07:56:02;;;;;;;4.10;2.35;;;;;;;-142.75;80.14;76048.69;5027066;28;20032;-63
2023/06/14 07:58:28;;;;;;;6.53;2.40;;;;;;;-142.75;78.05;76021.13;5027050;28;20021;-63
2023/06/14 08:00:53;;;;;;;5.82;2.25;;;;;;;-142.75;79.84;75995.53;5026756;28;20090;-63
2023/06/14 08:03:19;;;;;;;5.57;2.40;;;;;;;-142.75;79.36;75987.66;5025730;28;20037;-64
2023/06/14 08:05:44;;;;;;;6.07;2.33;;;;;;;-142.75;77.26;75956.19;5027251;28;20029;-63
2023/06/14 08:08:10;;;;;;;6.97;2.80;;;;;;;-142.75;76.28;75946.34;5026996;28;20021;-64
2023/06/14 08:10:35;;;;;;;7.20;2.20;;;;;;;-142.75;75.52;75934.53;5026296;28;20471;-64
2023/06/14 08:13:00;;;;;;;6.38;2.53;;;;;;;-142.75;76.01;75916.81;5026680;28;20457;-63
2023/06/14 08:15:26;;;;;;;6.80;2.20;;;;;;;-142.75;73.99;75928.63;5027017;28;20028;-63
2023/06/14 08:17:52;;;;;;;10.10;2.22;;;;;;;-142.75;75.13;75932.56;5027250;28;20036;-62
2023/06/14 08:20:17;;;;;;;3.78;2.25;;;;;;;-142.75;76.39;75908.94;5027278;28;20018;-62
2023/06/14 08:22:43;;;;;;;5.25;2.13;;;;;;;-142.75;73.22;75897.13;5027074;28;20432;-64
2023/06/14 08:25:09;;;;;;;7.18;2.15;;;;;;;-142.75;71.97;75938.47;5027200;28;20021;-63
2023/06/14 08:27:35;;;;;;;5.25;2.33;;;;;;;-142.75;74.23;75928.63;5026854;28;20103;-64
2023/06/14 08:30:02;;;;;;;6.72;2.40;;;;;;;-142.75;72.76;75932.56;5026988;28;20112;-63
2023/06/14 08:32:27;;;;;;;3.08;2.17;;;;;;;-142.75;73.19;75924.69;5026558;28;20494;-63
2023/06/14 08:34:52;;;;;;;6.20;2.40;;;;;;;-142.75;72.51;75912.88;5026465;28;20017;-63
2023/06/14 08:37:18;;;;;;;7.28;2.67;;;;;;;-142.75;72.94;75891.22;5026672;28;20033;-62
2023/06/14 08:39:43;;;;;;;3.53;2.22;;;;;;;-142.75;73.65;75881.38;5026615;28;20483;-62
2023/06/14 08:42:10;;;;;;;7.63;2.20;;;;;;;-142.75;72.95;75887.28;5026463;28;20040;-63
2023/06/14 08:44:36;;;;;;;5.78;2.22;;;;;;;-142.75;69.41;75887.28;5041479;28;20032;-63
2023/06/14 08:47:03;;;;;;;5.15;2.03;;;;;;;-142.75;71.01;75903.03;5026420;28;20021;-63
2023/06/14 08:49:30;;;;;;;6.53;2.30;;;;;;;-142.75;70.92;75924.69;5026485;28;20104;-62
2023/06/14 08:52:00;;;;;;;4.32;2.42;;;;;;;-142.75;71.47;75912.88;5025244;28;20079;-63
2023/06/14 08:54:30;;;;;;;4.03;2.17;;;;;;;-142.75;69.45;75881.38;5025561;28;20067;-63
2023/06/14 08:56:58;;;;;;;4.63;1.98;;;;;;;-142.75;70.18;75863.66;5026253;28;20025;-63
2023/06/14 08:59:26;;;;;;;4.55;2.17;;;;;;;-142.75;70.58;75851.88;5026062;28;20052;-63
2023/06/14 09:01:52;;;;;;;5.50;2.35;;;;;;;-142.75;71.99;75802.66;5026115;28;20052;-63
2023/06/14 09:04:19;;;;;;;4.00;2.10;;;;;;;-142.75;69.74;75798.72;5026619;28;20029;-63
2023/06/14 09:06:45;;;;;;;5.55;2.35;;;;;;;-142.75;67.87;75842.03;5026582;28;20136;-64
2023/06/14 09:09:11;;;;;;;3.42;2.05;;;;;;;-142.75;69.39;75845.97;5026594;28;20514;-64
2023/06/14 09:11:36;;;;;;;3.92;2.00;;;;;;;-142.75;69.42;75845.97;5026153;28;20064;-64
2023/06/14 09:14:02;;;;;;;5.82;2.30;;;;;;;-142.75;72.48;75818.41;5026320;28;20510;-64
2023/06/14 09:16:27;;;;;;;3.28;2.03;;;;;;;-142.75;69.21;75796.75;5026311;28;20041;-63
2023/06/14 09:18:53;;;;;;;4.72;2.03;;;;;;;-142.75;65.53;75800.69;5025113;28;20025;-64
2023/06/14 09:21:20;;;;;;;6.03;2.20;;;;;;;-142.75;64.99;75820.38;5026292;28;20486;-63
2023/06/14 09:23:47;;;;;;;5.97;2.38;;;;;;;-142.75;65.03;75822.34;5026573;28;20025;-64
2023/06/14 09:26:15;;;;;;;4.85;1.77;;;;;;;-142.75;66.06;75842.03;5026577;28;20022;-63
2023/06/14 09:28:48;;;;;;;5.32;2.25;;;;;;;-142.75;68.39;75822.34;5025108;28;20041;-63
2023/06/14 09:31:16;;;;;;;5.18;2.08;;;;;;;-142.75;69.58;75767.22;5026429;28;20532;-63
2023/06/14 09:33:47;;;;;;;3.65;1.70;;;;;;;-142.75;66.98;75751.50;5026506;28;20059;-64
2023/06/14 09:36:19;;;;;;;3.90;1.95;;;;;;;-142.75;66.22;75771.16;5026508;28;20068;-64
2023/06/14 09:38:58;;;;;;;3.83;1.92;;;;;;;-142.75;64.88;75782.97;5026474;28;20537;-64
2023/06/14 09:41:34;;;;;;;5.38;1.65;;;;;;;-142.75;64.72;75798.72;5026022;28;20075;-63
2023/06/14 09:44:00;;;;;;;3.50;1.58;;;;;;;-142.75;61.37;75798.72;5026232;28;20027;-64
2023/06/14 09:46:28;;;;;;;3.47;1.70;;;;;;;-142.75;59.97;75802.66;5026155;28;20087;-65
2023/06/14 09:48:53;;;;;;;3.72;1.60;;;;;;;-142.75;62.17;75798.72;5024797;28;20036;-64
2023/06/14 09:51:21;;;;;;;2.75;1.50;;;;;;;-142.75;63.15;75781.00;5024732;28;20022;-63
2023/06/14 09:53:49;;;;;;;4.57;1.90;;;;;;;-142.75;63.82;75771.16;5026234;28;20533;-64
2023/06/14 09:56:26;;;;;;;3.30;1.80;;;;;;;-142.75;60.16;75800.69;5026410;28;20026;-65
2023/06/14 09:58:55;;;;;;;3.35;1.90;;;;;;;-142.75;60.04;75824.31;5026117;28;20029;-64
2023/06/14 10:01:22;;;;;;;2.90;1.42;;;;;;;-142.75;60.65;75838.09;5024557;28;20029;-63
2023/06/14 10:03:50;;;;;;;6.80;2.00;;;;;;;-142.75;59.05;75816.44;5025893;28;20100;-63
2023/06/14 10:06:17;;;;;;;2.13;1.40;;;;;;;-142.75;59.44;75767.22;5025920;28;20021;-63
2023/06/14 10:08:43;;;;;;;3.78;1.40;;;;;;;-142.75;63.02;75727.88;5026042;28;20025;-64
2023/06/14 10:11:09;;;;;;;3.08;1.50;;;;;;;-142.75;54.32;75745.59;5025921;28;20023;-65
2023/06/14 10:13:35;;;;;;;3.90;1.42;;;;;;;-142.75;56.36;75741.66;5024433;28;20563;-64
2023/06/14 10:16:07;;;;;;;2.45;1.20;;;;;;;-142.75;52.41;75735.75;5026226;28;20491;-64
2023/06/14 10:18:35;;;;;;;3.45;1.50;;;;;;;-142.75;54.05;75739.69;5024346;28;20045;-64
2023/06/14 10:21:16;;;;;;;5.55;1.25;;;;;;;-142.75;55.43;75739.69;5025649;28;20124;-63
2023/06/14 10:23:44;;;;;;;2.50;1.48;;;;;;;-142.75;52.89;75721.97;5026037;28;20029;-63
2023/06/14 10:26:19;;;;;;;3.22;1.35;;;;;;;-142.75;51.43;75700.31;5027138;28;20508;-64
2023/06/14 10:28:56;;;;;;;2.83;1.33;;;;;;;-142.75;54.60;75692.44;5029682;28;20029;-63
2023/06/14 10:31:21;;;;;;;4.57;1.65;;;;;;;-142.75;54.98;75670.81;5029090;28;20026;-63
2023/06/14 10:33:53;;;;;;;2.88;1.23;;;;;;;-142.75;52.53;75670.81;5029440;28;20033;-63
2023/06/14 10:36:21;;;;;;;3.55;1.73;;;;;;;-142.75;54.36;75666.88;5029351;28;20026;-63
2023/06/14 10:39:15;;;;;;;3.58;1.23;;;;;;;-142.75;52.47;75670.81;5029146;28;20057;-64
2023/06/14 10:41:41;;;;;;;5.72;1.33;;;;;;;-142.75;53.09;75672.78;5029092;28;20049;-64
2023/06/14 10:44:13;;;;;;;2.35;1.30;;;;;;;-142.75;50.03;75684.56;5029169;28;20067;-64
2023/06/14 10:46:39;;;;;;;3.38;1.50;;;;;;;-142.75;51.18;75694.41;5028957;28;20079;-63
2023/06/14 10:49:06;;;;;;;3.70;1.60;;;;;;;-142.75;52.44;75694.41;5029034;28;20033;-64
2023/06/14 10:51:46;;;;;;;1.80;0.90;;;;;;;-142.75;50.22;75660.97;5028832;28;20029;-63
2023/06/14 10:54:13;;;;;;;2.05;1.10;;;;;;;-142.75;51.66;75682.59;5029076;28;20022;-64
2023/06/14 10:56:47;;;;;;;2.22;1.30;;;;;;;-142.75;51.55;75672.78;5029014;28;20537;-63
2023/06/14 10:59:12;;;;;;;4.20;1.45;;;;;;;-142.75;53.00;75704.25;5028924;28;20025;-63
2023/06/14 11:01:47;;;;;;;5.43;1.35;;;;;;;-142.75;54.72;75700.31;5028936;28;20068;-64
2023/06/14 11:04:13;;;;;;;2.95;1.05;;;;;;;-142.75;51.65;75690.47;5029243;28;20033;-64
2023/06/14 11:06:49;;;;;;;3.15;0.90;;;;;;;-142.75;50.11;75704.25;5028267;28;20102;-64
2023/06/14 11:09:53;;;;;;;4.00;1.17;;;;;;;-142.75;51.30;75686.53;5028098;28;20029;-64